LSZS/SMV METAR and TAF weather

Enter ICAO airport designator
Station Type Date Time Source
LSZS METAR 2019/02/16 07:50 UTC NOAA

LSZS 160750Z VRB01KT CAVOK M16/M18 Q1032 RMK C


Station Type Date Time Source
LSZS Decoded METAR 2019/02/16 07:50 UTC NOAA

Station name not available
Feb 16, 2019 - 02:50 AM EST / 2019.02.16 0750 UTC
Wind: Variable at 1 MPH (1 KT):0
Visibility: greater than 7 mile(s):0
Temperature: 3 F (-16 C)
Dew Point: 0 F (-18 C)
Relative Humidity: 84%
Pressure (altimeter): 30.47 in. Hg (1032 hPa)
ob: LSZS 160750Z VRB01KT CAVOK M16/M18 Q1032 RMK C
cycle: 8

Station Type Date Time Source
LSZS TAF 2014/12/22 20:03 UTC NOAA

TAF
AMD LSZS 222054Z 2220/2224 CNL


Example: see airport list